createdAt,value
2019-02-11T00:01:33.910Z,26.49
2019-02-11T00:21:33.339Z,28.42
2019-02-11T00:41:42.769Z,33.84
2019-02-11T01:01:52.243Z,25.68
2019-02-11T01:22:01.707Z,26.64
2019-02-11T01:42:13.392Z,32.04
2019-02-11T02:02:15.137Z,42.86
2019-02-11T02:22:14.597Z,34.61
2019-02-11T02:42:24.053Z,29.98
2019-02-11T03:02:33.514Z,33.51
2019-02-11T03:22:45.279Z,30.34
2019-02-11T03:42:44.794Z,27.32
2019-02-11T04:02:54.226Z,28.86
2019-02-11T04:23:03.632Z,40.97
2019-02-11T04:43:13.102Z,32.82
2019-02-11T05:03:24.952Z,34.48
2019-02-11T05:23:23.033Z,32.70
2019-02-11T05:43:32.519Z,31.09
2019-02-11T06:03:42.037Z,35.35
2019-02-11T06:23:51.590Z,55.33
2019-02-11T06:44:03.372Z,38.23
2019-02-11T07:04:02.861Z,43.18
2019-02-11T07:24:12.409Z,38.66
2019-02-11T07:44:21.888Z,31.66
2019-02-11T08:04:31.481Z,39.62
2019-02-11T08:24:41.184Z,47.95
2019-02-11T08:44:50.791Z,29.85
2019-02-11T09:05:00.420Z,43.03
2019-02-11T09:25:09.958Z,37.69
2019-02-11T09:45:19.608Z,41.08
2019-02-11T10:05:31.482Z,28.66
2019-02-11T10:25:31.104Z,25.35
2019-02-11T10:45:40.918Z,46.46
2019-02-11T11:05:53.256Z,40.09
2019-02-11T11:25:52.847Z,30.13
2019-02-11T11:46:02.692Z,42.20
2019-02-11T12:06:18.329Z,37.21
2019-02-11T12:26:21.282Z,49.61
2019-02-11T12:46:27.089Z,58.52
2019-02-11T13:06:36.534Z,44.36
2019-02-11T13:26:46.371Z,45.27
2019-02-11T13:46:56.042Z,66.40
2019-02-11T14:07:04.224Z,39.21
2019-02-11T14:27:16.207Z,81.00
2019-02-11T14:47:15.711Z,65.43
2019-02-11T15:07:25.429Z,58.78
2019-02-11T15:27:39.388Z,130.28
2019-02-11T15:47:36.335Z,170.02
2019-02-11T16:07:48.210Z,97.65
2019-02-11T16:27:47.647Z,160.22
2019-02-11T16:47:59.465Z,195.65
2019-02-11T17:07:59.307Z,343.38
2019-02-11T17:28:18.700Z,649.45
2019-02-11T17:48:21.335Z,473.60
2019-02-11T18:08:25.141Z,620.77
2019-02-11T18:28:27.293Z,166.32
2019-02-11T18:48:27.070Z,117.54
2019-02-11T19:08:36.876Z,103.37
2019-02-11T19:28:46.522Z,103.14
2019-02-11T19:48:56.356Z,160.49
2019-02-11T20:09:06.202Z,120.21
2019-02-11T20:29:27.772Z,133.28
2019-02-11T20:49:17.648Z,163.57
2019-02-11T21:09:27.384Z,300.69
2019-02-11T21:29:36.907Z,436.47
2019-02-11T21:49:46.911Z,602.29
2019-02-11T22:09:58.839Z,288.14
2019-02-11T22:29:58.444Z,127.43
2019-02-11T22:50:08.052Z,134.63
2019-02-11T23:10:18.042Z,138.91
2019-02-11T23:30:27.589Z,198.23
2019-02-11T23:50:37.387Z,114.14
